sensor_id;sensor_type;location;lat;lon;timestamp;temperature;humidity
29551;DHT22;16488;52.396;10.696;2022-11-15T00:00:32;8.00;99.90
29551;DHT22;16488;52.396;10.696;2022-11-15T00:02:58;8.00;99.90
29551;DHT22;16488;52.396;10.696;2022-11-15T00:05:23;8.00;99.90
29551;DHT22;16488;52.396;10.696;2022-11-15T00:07:49;7.90;99.90
29551;DHT22;16488;52.396;10.696;2022-11-15T00:10:15;7.90;99.90
29551;DHT22;16488;52.396;10.696;2022-11-15T00:12:40;7.90;99.90
29551;DHT22;16488;52.396;10.696;2022-11-15T00:15:06;7.90;99.90
29551;DHT22;16488;52.396;10.696;2022-11-15T00:17:32;7.80;99.90
29551;DHT22;16488;52.396;10.696;2022-11-15T00:19:58;7.80;99.90
29551;DHT22;16488;52.396;10.696;2022-11-15T00:22:23;7.80;99.90
29551;DHT22;16488;52.396;10.696;2022-11-15T00:24:49;7.70;99.90
29551;DHT22;16488;52.396;10.696;2022-11-15T00:27:14;7.70;99.90
29551;DHT22;16488;52.396;10.696;2022-11-15T00:29:40;7.70;99.90
29551;DHT22;16488;52.396;10.696;2022-11-15T00:32:09;7.60;99.90
29551;DHT22;16488;52.396;10.696;2022-11-15T00:34:35;7.60;99.90
29551;DHT22;16488;52.396;10.696;2022-11-15T00:37:00;7.60;99.90
29551;DHT22;16488;52.396;10.696;2022-11-15T00:39:26;7.60;99.90
29551;DHT22;16488;52.396;10.696;2022-11-15T00:41:51;7.50;99.90
29551;DHT22;16488;52.396;10.696;2022-11-15T00:44:17;7.50;99.90
29551;DHT22;16488;52.396;10.696;2022-11-15T00:46:43;7.50;99.90
29551;DHT22;16488;52.396;10.696;2022-11-15T00:49:08;7.50;99.90
29551;DHT22;16488;52.396;10.696;2022-11-15T00:51:34;7.50;99.90
29551;DHT22;16488;52.396;10.696;2022-11-15T00:53:59;7.40;99.90
29551;DHT22;16488;52.396;10.696;2022-11-15T00:56:25;7.40;99.90
29551;DHT22;16488;52.396;10.696;2022-11-15T00:58:50;7.40;99.90
29551;DHT22;16488;52.396;10.696;2022-11-15T01:01:16;7.30;99.90
29551;DHT22;16488;52.396;10.696;2022-11-15T01:03:42;7.40;99.90
29551;DHT22;16488;52.396;10.696;2022-11-15T01:06:08;7.30;99.90
29551;DHT22;16488;52.396;10.696;2022-11-15T01:08:34;7.30;99.90
29551;DHT22;16488;52.396;10.696;2022-11-15T01:11:04;7.30;99.90
29551;DHT22;16488;52.396;10.696;2022-11-15T01:13:32;7.20;99.90
29551;DHT22;16488;52.396;10.696;2022-11-15T01:15:57;7.20;99.90
29551;DHT22;16488;52.396;10.696;2022-11-15T01:18:23;7.20;99.90
29551;DHT22;16488;52.396;10.696;2022-11-15T01:20:48;7.20;99.90
29551;DHT22;16488;52.396;10.696;2022-11-15T01:23:14;7.20;99.90
29551;DHT22;16488;52.396;10.696;2022-11-15T01:25:40;7.20;99.90
29551;DHT22;16488;52.396;10.696;2022-11-15T01:28:05;7.20;99.90
29551;DHT22;16488;52.396;10.696;2022-11-15T01:30:31;7.10;99.90
29551;DHT22;16488;52.396;10.696;2022-11-15T01:32:57;7.10;99.90
29551;DHT22;16488;52.396;10.696;2022-11-15T01:35:22;7.20;99.90
29551;DHT22;16488;52.396;10.696;2022-11-15T01:37:48;7.10;99.90
29551;DHT22;16488;52.396;10.696;2022-11-15T01:40:14;7.10;99.90
29551;DHT22;16488;52.396;10.696;2022-11-15T01:42:39;7.00;99.90
29551;DHT22;16488;52.396;10.696;2022-11-15T01:45:05;7.00;99.90
29551;DHT22;16488;52.396;10.696;2022-11-15T01:47:35;7.00;99.90
29551;DHT22;16488;52.396;10.696;2022-11-15T01:50:08;7.00;99.90
29551;DHT22;16488;52.396;10.696;2022-11-15T01:52:36;7.00;99.90
29551;DHT22;16488;52.396;10.696;2022-11-15T01:55:09;6.90;99.90
29551;DHT22;16488;52.396;10.696;2022-11-15T01:57:36;6.90;99.90
29551;DHT22;16488;52.396;10.696;2022-11-15T02:00:04;6.80;99.90
29551;DHT22;16488;52.396;10.696;2022-11-15T02:02:30;6.80;99.90
29551;DHT22;16488;52.396;10.696;2022-11-15T02:04:55;6.90;99.90
29551;DHT22;16488;52.396;10.696;2022-11-15T02:07:22;6.80;99.90
29551;DHT22;16488;52.396;10.696;2022-11-15T02:09:47;6.70;99.90
29551;DHT22;16488;52.396;10.696;2022-11-15T02:12:17;6.70;99.90
29551;DHT22;16488;52.396;10.696;2022-11-15T02:14:51;6.60;99.90
29551;DHT22;16488;52.396;10.696;2022-11-15T02:17:32;6.50;99.90
29551;DHT22;16488;52.396;10.696;2022-11-15T02:34:11;6.30;99.90
29551;DHT22;16488;52.396;10.696;2022-11-15T02:36:58;6.30;99.90
29551;DHT22;16488;52.396;10.696;2022-11-15T02:39:46;6.30;99.90
29551;DHT22;16488;52.396;10.696;2022-11-15T02:42:26;6.30;99.90
29551;DHT22;16488;52.396;10.696;2022-11-15T02:45:15;6.20;99.90
29551;DHT22;16488;52.396;10.696;2022-11-15T02:47:44;6.30;99.90
29551;DHT22;16488;52.396;10.696;2022-11-15T02:50:13;6.20;99.90
29551;DHT22;16488;52.396;10.696;2022-11-15T02:52:43;6.20;99.90
29551;DHT22;16488;52.396;10.696;2022-11-15T02:55:33;6.10;99.90
29551;DHT22;16488;52.396;10.696;2022-11-15T03:03:48;6.10;99.90
29551;DHT22;16488;52.396;10.696;2022-11-15T03:09:08;6.10;99.90
29551;DHT22;16488;52.396;10.696;2022-11-15T03:11:38;6.20;99.90
29551;DHT22;16488;52.396;10.696;2022-11-15T03:14:11;6.20;99.90
29551;DHT22;16488;52.396;10.696;2022-11-15T03:17:03;6.20;99.90
29551;DHT22;16488;52.396;10.696;2022-11-15T03:19:36;6.10;99.90
29551;DHT22;16488;52.396;10.696;2022-11-15T03:22:06;6.20;99.90
29551;DHT22;16488;52.396;10.696;2022-11-15T03:24:36;6.20;99.90
29551;DHT22;16488;52.396;10.696;2022-11-15T03:27:07;6.20;99.90
29551;DHT22;16488;52.396;10.696;2022-11-15T03:29:41;6.20;99.90
29551;DHT22;16488;52.396;10.696;2022-11-15T03:32:14;6.20;99.90
29551;DHT22;16488;52.396;10.696;2022-11-15T03:34:52;6.20;99.90
29551;DHT22;16488;52.396;10.696;2022-11-15T03:37:21;6.20;99.90
29551;DHT22;16488;52.396;10.696;2022-11-15T03:39:47;6.30;99.90
29551;DHT22;16488;52.396;10.696;2022-11-15T03:42:29;6.20;99.90
29551;DHT22;16488;52.396;10.696;2022-11-15T03:45:03;6.20;99.90
29551;DHT22;16488;52.396;10.696;2022-11-15T03:47:53;6.20;99.90
29551;DHT22;16488;52.396;10.696;2022-11-15T03:50:21;6.20;99.90
29551;DHT22;16488;52.396;10.696;2022-11-15T03:52:48;6.20;99.90
29551;DHT22;16488;52.396;10.696;2022-11-15T03:55:19;6.10;99.90
29551;DHT22;16488;52.396;10.696;2022-11-15T03:57:47;6.10;99.90
29551;DHT22;16488;52.396;10.696;2022-11-15T04:00:13;6.10;99.90
29551;DHT22;16488;52.396;10.696;2022-11-15T04:02:39;6.10;99.90
29551;DHT22;16488;52.396;10.696;2022-11-15T04:05:05;6.20;99.90
29551;DHT22;16488;52.396;10.696;2022-11-15T04:07:30;6.10;99.90
29551;DHT22;16488;52.396;10.696;2022-11-15T04:09:56;6.10;99.90
29551;DHT22;16488;52.396;10.696;2022-11-15T04:12:32;6.10;99.90
29551;DHT22;16488;52.396;10.696;2022-11-15T04:15:04;6.00;99.90
29551;DHT22;16488;52.396;10.696;2022-11-15T04:17:59;6.00;99.90
29551;DHT22;16488;52.396;10.696;2022-11-15T04:20:28;6.00;99.90
29551;DHT22;16488;52.396;10.696;2022-11-15T04:23:19;6.10;99.90
29551;DHT22;16488;52.396;10.696;2022-11-15T04:26:09;6.00;99.90
29551;DHT22;16488;52.396;10.696;2022-11-15T04:28:36;6.00;99.90
29551;DHT22;16488;52.396;10.696;2022-11-15T04:31:22;5.90;99.90
29551;DHT22;16488;52.396;10.696;2022-11-15T04:33:47;5.80;99.90
29551;DHT22;16488;52.396;10.696;2022-11-15T04:36:13;5.90;99.90
29551;DHT22;16488;52.396;10.696;2022-11-15T04:38:57;5.90;99.90
29551;DHT22;16488;52.396;10.696;2022-11-15T04:41:22;5.80;99.90
29551;DHT22;16488;52.396;10.696;2022-11-15T04:43:48;5.80;99.90
29551;DHT22;16488;52.396;10.696;2022-11-15T04:46:13;5.70;99.90
29551;DHT22;16488;52.396;10.696;2022-11-15T04:48:39;5.60;99.90
29551;DHT22;16488;52.396;10.696;2022-11-15T04:51:04;5.60;99.90
29551;DHT22;16488;52.396;10.696;2022-11-15T04:53:30;5.50;99.90
29551;DHT22;16488;52.396;10.696;2022-11-15T04:55:55;5.40;99.90
29551;DHT22;16488;52.396;10.696;2022-11-15T04:58:21;5.40;99.90
29551;DHT22;16488;52.396;10.696;2022-11-15T05:00:46;5.40;99.90
29551;DHT22;16488;52.396;10.696;2022-11-15T05:03:12;5.30;99.90
29551;DHT22;16488;52.396;10.696;2022-11-15T05:05:57;5.40;99.90
29551;DHT22;16488;52.396;10.696;2022-11-15T05:08:24;5.30;99.90
29551;DHT22;16488;52.396;10.696;2022-11-15T05:10:49;5.30;99.90
29551;DHT22;16488;52.396;10.696;2022-11-15T05:13:15;5.30;99.90
29551;DHT22;16488;52.396;10.696;2022-11-15T05:15:41;5.40;99.90
29551;DHT22;16488;52.396;10.696;2022-11-15T05:18:06;5.30;99.90
29551;DHT22;16488;52.396;10.696;2022-11-15T05:20:32;5.30;99.90
29551;DHT22;16488;52.396;10.696;2022-11-15T05:22:58;5.10;99.90
29551;DHT22;16488;52.396;10.696;2022-11-15T05:25:24;5.20;99.90
29551;DHT22;16488;52.396;10.696;2022-11-15T05:27:49;5.30;99.90
29551;DHT22;16488;52.396;10.696;2022-11-15T05:30:15;5.40;99.90
29551;DHT22;16488;52.396;10.696;2022-11-15T05:32:41;5.40;99.90
29551;DHT22;16488;52.396;10.696;2022-11-15T05:35:08;5.40;99.90
29551;DHT22;16488;52.396;10.696;2022-11-15T05:37:37;5.50;99.90
29551;DHT22;16488;52.396;10.696;2022-11-15T05:40:03;5.60;99.90
29551;DHT22;16488;52.396;10.696;2022-11-15T05:42:29;5.60;99.90
29551;DHT22;16488;52.396;10.696;2022-11-15T05:44:55;5.60;99.90
29551;DHT22;16488;52.396;10.696;2022-11-15T05:47:24;5.70;99.90
29551;DHT22;16488;52.396;10.696;2022-11-15T05:49:53;5.70;99.90
29551;DHT22;16488;52.396;10.696;2022-11-15T05:52:21;5.70;99.90
29551;DHT22;16488;52.396;10.696;2022-11-15T05:54:48;5.70;99.90
29551;DHT22;16488;52.396;10.696;2022-11-15T05:57:15;5.80;99.90
29551;DHT22;16488;52.396;10.696;2022-11-15T05:59:40;5.70;99.90
29551;DHT22;16488;52.396;10.696;2022-11-15T06:02:09;5.70;99.90
29551;DHT22;16488;52.396;10.696;2022-11-15T06:04:34;5.70;99.90
29551;DHT22;16488;52.396;10.696;2022-11-15T06:07:00;5.70;99.90
29551;DHT22;16488;52.396;10.696;2022-11-15T06:09:25;5.60;99.90
29551;DHT22;16488;52.396;10.696;2022-11-15T06:11:51;5.60;99.90
29551;DHT22;16488;52.396;10.696;2022-11-15T06:14:17;5.50;99.90
29551;DHT22;16488;52.396;10.696;2022-11-15T06:16:43;5.60;99.90
29551;DHT22;16488;52.396;10.696;2022-11-15T06:19:09;5.50;99.90
29551;DHT22;16488;52.396;10.696;2022-11-15T06:21:35;5.50;99.90
29551;DHT22;16488;52.396;10.696;2022-11-15T06:24:00;5.40;99.90
29551;DHT22;16488;52.396;10.696;2022-11-15T06:26:26;5.50;99.90
29551;DHT22;16488;52.396;10.696;2022-11-15T06:28:52;5.50;99.90
29551;DHT22;16488;52.396;10.696;2022-11-15T06:31:17;5.50;99.90
29551;DHT22;16488;52.396;10.696;2022-11-15T06:33:43;5.40;99.90
29551;DHT22;16488;52.396;10.696;2022-11-15T06:36:10;5.40;99.90
29551;DHT22;16488;52.396;10.696;2022-11-15T06:38:38;5.40;99.90
29551;DHT22;16488;52.396;10.696;2022-11-15T06:41:06;5.30;99.90
29551;DHT22;16488;52.396;10.696;2022-11-15T06:43:33;5.30;99.90
29551;DHT22;16488;52.396;10.696;2022-11-15T06:45:59;5.30;99.90
29551;DHT22;16488;52.396;10.696;2022-11-15T06:48:25;5.30;99.90
29551;DHT22;16488;52.396;10.696;2022-11-15T06:50:56;5.20;99.90
29551;DHT22;16488;52.396;10.696;2022-11-15T06:53:22;5.10;99.90
29551;DHT22;16488;52.396;10.696;2022-11-15T06:55:47;5.10;99.90
29551;DHT22;16488;52.396;10.696;2022-11-15T06:58:13;5.10;99.90
29551;DHT22;16488;52.396;10.696;2022-11-15T07:00:39;5.10;99.90
29551;DHT22;16488;52.396;10.696;2022-11-15T07:03:04;5.10;99.90
29551;DHT22;16488;52.396;10.696;2022-11-15T07:05:30;5.10;99.90
29551;DHT22;16488;52.396;10.696;2022-11-15T07:07:57;5.10;99.90
29551;DHT22;16488;52.396;10.696;2022-11-15T07:10:23;5.00;99.90
29551;DHT22;16488;52.396;10.696;2022-11-15T07:12:50;5.00;99.90
29551;DHT22;16488;52.396;10.696;2022-11-15T07:15:17;5.00;99.90
29551;DHT22;16488;52.396;10.696;2022-11-15T07:17:43;4.90;99.90
29551;DHT22;16488;52.396;10.696;2022-11-15T07:20:09;5.00;99.90
29551;DHT22;16488;52.396;10.696;2022-11-15T07:22:34;5.10;99.90
29551;DHT22;16488;52.396;10.696;2022-11-15T07:25:00;5.20;99.90
29551;DHT22;16488;52.396;10.696;2022-11-15T07:27:26;5.30;99.90
29551;DHT22;16488;52.396;10.696;2022-11-15T07:29:51;5.40;99.90
29551;DHT22;16488;52.396;10.696;2022-11-15T07:32:17;5.50;99.90
29551;DHT22;16488;52.396;10.696;2022-11-15T07:34:42;5.50;99.90
29551;DHT22;16488;52.396;10.696;2022-11-15T07:37:08;5.50;99.90
29551;DHT22;16488;52.396;10.696;2022-11-15T07:39:33;5.50;99.90
29551;DHT22;16488;52.396;10.696;2022-11-15T07:41:59;5.60;99.90
29551;DHT22;16488;52.396;10.696;2022-11-15T07:44:43;5.70;99.90
29551;DHT22;16488;52.396;10.696;2022-11-15T07:47:09;5.90;99.90
29551;DHT22;16488;52.396;10.696;2022-11-15T07:49:34;6.00;99.90
29551;DHT22;16488;52.396;10.696;2022-11-15T07:52:00;6.20;99.90
29551;DHT22;16488;52.396;10.696;2022-11-15T07:54:25;6.30;99.90
29551;DHT22;16488;52.396;10.696;2022-11-15T07:56:51;6.40;99.90
29551;DHT22;16488;52.396;10.696;2022-11-15T07:59:16;6.50;99.90
29551;DHT22;16488;52.396;10.696;2022-11-15T08:01:43;6.60;99.90
29551;DHT22;16488;52.396;10.696;2022-11-15T08:04:11;6.70;99.90
29551;DHT22;16488;52.396;10.696;2022-11-15T08:06:36;6.90;99.90
29551;DHT22;16488;52.396;10.696;2022-11-15T08:09:02;7.10;99.90
29551;DHT22;16488;52.396;10.696;2022-11-15T08:11:28;7.40;99.90
29551;DHT22;16488;52.396;10.696;2022-11-15T08:13:53;7.60;99.90
29551;DHT22;16488;52.396;10.696;2022-11-15T08:16:19;7.70;99.90
29551;DHT22;16488;52.396;10.696;2022-11-15T08:18:44;8.00;99.90
29551;DHT22;16488;52.396;10.696;2022-11-15T08:21:12;8.10;99.90
29551;DHT22;16488;52.396;10.696;2022-11-15T08:23:39;8.30;99.90
29551;DHT22;16488;52.396;10.696;2022-11-15T08:26:05;8.50;99.90
29551;DHT22;16488;52.396;10.696;2022-11-15T08:28:32;8.60;99.90
29551;DHT22;16488;52.396;10.696;2022-11-15T08:30:57;8.80;99.90
29551;DHT22;16488;52.396;10.696;2022-11-15T08:33:23;9.00;99.90
29551;DHT22;16488;52.396;10.696;2022-11-15T08:35:49;9.10;99.90
29551;DHT22;16488;52.396;10.696;2022-11-15T08:38:15;9.30;99.90
29551;DHT22;16488;52.396;10.696;2022-11-15T08:40:41;9.50;99.90
29551;DHT22;16488;52.396;10.696;2022-11-15T08:43:06;9.60;99.90
29551;DHT22;16488;52.396;10.696;2022-11-15T08:45:34;9.70;99.90
29551;DHT22;16488;52.396;10.696;2022-11-15T08:48:02;9.80;99.90
29551;DHT22;16488;52.396;10.696;2022-11-15T08:50:27;9.80;99.90
29551;DHT22;16488;52.396;10.696;2022-11-15T08:52:53;9.90;99.90
29551;DHT22;16488;52.396;10.696;2022-11-15T08:55:19;9.90;99.90
29551;DHT22;16488;52.396;10.696;2022-11-15T08:57:44;9.90;99.90
29551;DHT22;16488;52.396;10.696;2022-11-15T09:00:11;10.00;99.90
29551;DHT22;16488;52.396;10.696;2022-11-15T09:02:40;10.00;99.90
29551;DHT22;16488;52.396;10.696;2022-11-15T09:05:06;10.10;99.90
29551;DHT22;16488;52.396;10.696;2022-11-15T09:07:32;10.10;99.90
29551;DHT22;16488;52.396;10.696;2022-11-15T09:09:58;10.10;99.90
29551;DHT22;16488;52.396;10.696;2022-11-15T09:12:24;10.20;99.90
29551;DHT22;16488;52.396;10.696;2022-11-15T09:14:49;10.20;99.90
29551;DHT22;16488;52.396;10.696;2022-11-15T09:17:15;10.20;99.90
29551;DHT22;16488;52.396;10.696;2022-11-15T09:19:41;10.20;99.90
29551;DHT22;16488;52.396;10.696;2022-11-15T09:22:07;10.20;99.90
29551;DHT22;16488;52.396;10.696;2022-11-15T09:24:33;10.20;99.90
29551;DHT22;16488;52.396;10.696;2022-11-15T09:26:58;10.20;99.90
29551;DHT22;16488;52.396;10.696;2022-11-15T09:29:24;10.20;99.90
29551;DHT22;16488;52.396;10.696;2022-11-15T09:31:52;10.20;99.90
29551;DHT22;16488;52.396;10.696;2022-11-15T09:34:18;10.30;99.90
29551;DHT22;16488;52.396;10.696;2022-11-15T09:36:43;10.30;99.90
29551;DHT22;16488;52.396;10.696;2022-11-15T09:39:09;10.30;99.90
29551;DHT22;16488;52.396;10.696;2022-11-15T09:47:20;10.40;99.90
29551;DHT22;16488;52.396;10.696;2022-11-15T09:49:58;10.60;99.90
29551;DHT22;16488;52.396;10.696;2022-11-15T09:52:25;10.80;99.90
29551;DHT22;16488;52.396;10.696;2022-11-15T09:54:51;11.00;99.90
29551;DHT22;16488;52.396;10.696;2022-11-15T09:57:37;11.10;99.90
29551;DHT22;16488;52.396;10.696;2022-11-15T10:00:33;11.30;99.90
29551;DHT22;16488;52.396;10.696;2022-11-15T10:03:10;11.50;99.90
29551;DHT22;16488;52.396;10.696;2022-11-15T10:05:40;11.70;99.90
29551;DHT22;16488;52.396;10.696;2022-11-15T10:08:20;12.00;99.90
29551;DHT22;16488;52.396;10.696;2022-11-15T10:10:51;12.50;99.90
29551;DHT22;16488;52.396;10.696;2022-11-15T10:13:25;12.60;99.90
29551;DHT22;16488;52.396;10.696;2022-11-15T10:15:53;12.70;99.90
29551;DHT22;16488;52.396;10.696;2022-11-15T10:18:41;12.70;99.90
29551;DHT22;16488;52.396;10.696;2022-11-15T10:21:21;12.80;99.90
29551;DHT22;16488;52.396;10.696;2022-11-15T10:23:49;12.80;99.90
29551;DHT22;16488;52.396;10.696;2022-11-15T10:26:17;12.90;99.90
29551;DHT22;16488;52.396;10.696;2022-11-15T10:28:43;13.00;99.90
29551;DHT22;16488;52.396;10.696;2022-11-15T10:31:26;13.20;99.90
29551;DHT22;16488;52.396;10.696;2022-11-15T10:34:20;13.60;99.90
29551;DHT22;16488;52.396;10.696;2022-11-15T10:39:20;14.00;99.90
29551;DHT22;16488;52.396;10.696;2022-11-15T10:41:46;14.20;99.90
29551;DHT22;16488;52.396;10.696;2022-11-15T10:44:21;14.00;99.90
29551;DHT22;16488;52.396;10.696;2022-11-15T10:49:23;14.20;99.90
29551;DHT22;16488;52.396;10.696;2022-11-15T10:54:39;14.00;99.90
29551;DHT22;16488;52.396;10.696;2022-11-15T10:57:12;14.00;99.90
29551;DHT22;16488;52.396;10.696;2022-11-15T10:59:38;13.90;99.90
29551;DHT22;16488;52.396;10.696;2022-11-15T11:04:55;14.10;99.90
29551;DHT22;16488;52.396;10.696;2022-11-15T11:07:28;14.40;99.90
29551;DHT22;16488;52.396;10.696;2022-11-15T11:10:02;14.70;99.90
29551;DHT22;16488;52.396;10.696;2022-11-15T11:12:31;15.20;99.90
29551;DHT22;16488;52.396;10.696;2022-11-15T11:14:58;15.40;99.90
29551;DHT22;16488;52.396;10.696;2022-11-15T11:17:30;15.40;99.90
29551;DHT22;16488;52.396;10.696;2022-11-15T11:20:30;15.60;99.90
29551;DHT22;16488;52.396;10.696;2022-11-15T11:23:37;16.00;99.90
29551;DHT22;16488;52.396;10.696;2022-11-15T11:37:07;15.90;99.90
29551;DHT22;16488;52.396;10.696;2022-11-15T11:39:50;15.90;99.90
29551;DHT22;16488;52.396;10.696;2022-11-15T11:42:28;15.90;99.90
29551;DHT22;16488;52.396;10.696;2022-11-15T11:47:47;15.50;99.90
29551;DHT22;16488;52.396;10.696;2022-11-15T11:50:23;15.40;99.90
29551;DHT22;16488;52.396;10.696;2022-11-15T11:52:57;15.50;99.90
29551;DHT22;16488;52.396;10.696;2022-11-15T11:55:40;15.60;99.90
29551;DHT22;16488;52.396;10.696;2022-11-15T12:03:42;14.70;99.90
29551;DHT22;16488;52.396;10.696;2022-11-15T12:06:27;14.60;99.90
29551;DHT22;16488;52.396;10.696;2022-11-15T12:11:37;14.70;99.90
29551;DHT22;16488;52.396;10.696;2022-11-15T12:17:00;15.10;99.90
29551;DHT22;16488;52.396;10.696;2022-11-15T12:19:26;14.90;99.90
29551;DHT22;16488;52.396;10.696;2022-11-15T12:26:57;14.70;99.90
29551;DHT22;16488;52.396;10.696;2022-11-15T12:29:29;14.70;99.90
29551;DHT22;16488;52.396;10.696;2022-11-15T12:31:57;14.60;99.90
29551;DHT22;16488;52.396;10.696;2022-11-15T12:34:46;14.60;99.90
29551;DHT22;16488;52.396;10.696;2022-11-15T12:40:22;14.60;99.90
29551;DHT22;16488;52.396;10.696;2022-11-15T12:45:40;14.90;99.90
29551;DHT22;16488;52.396;10.696;2022-11-15T13:06:52;15.00;99.90
29551;DHT22;16488;52.396;10.696;2022-11-15T13:12:00;15.00;99.90
29551;DHT22;16488;52.396;10.696;2022-11-15T13:14:48;14.90;99.90
29551;DHT22;16488;52.396;10.696;2022-11-15T13:17:33;14.70;99.90
29551;DHT22;16488;52.396;10.696;2022-11-15T13:22:44;14.40;99.90
29551;DHT22;16488;52.396;10.696;2022-11-15T13:33:53;14.10;99.90
29551;DHT22;16488;52.396;10.696;2022-11-15T13:36:22;14.00;99.90
29551;DHT22;16488;52.396;10.696;2022-11-15T13:41:52;13.90;99.90
29551;DHT22;16488;52.396;10.696;2022-11-15T13:44:24;13.80;99.90
29551;DHT22;16488;52.396;10.696;2022-11-15T13:47:03;13.80;99.90
29551;DHT22;16488;52.396;10.696;2022-11-15T13:49:31;13.70;99.90
29551;DHT22;16488;52.396;10.696;2022-11-15T13:51:58;13.70;99.90
29551;DHT22;16488;52.396;10.696;2022-11-15T13:54:27;13.60;99.90
29551;DHT22;16488;52.396;10.696;2022-11-15T13:57:09;13.60;99.90
29551;DHT22;16488;52.396;10.696;2022-11-15T13:59:43;13.60;99.90
29551;DHT22;16488;52.396;10.696;2022-11-15T14:02:18;13.60;99.90
29551;DHT22;16488;52.396;10.696;2022-11-15T14:04:51;13.60;99.90
29551;DHT22;16488;52.396;10.696;2022-11-15T14:07:23;13.60;99.90
29551;DHT22;16488;52.396;10.696;2022-11-15T14:09:49;13.50;99.90
29551;DHT22;16488;52.396;10.696;2022-11-15T14:12:35;13.50;99.90
29551;DHT22;16488;52.396;10.696;2022-11-15T14:15:28;13.50;99.90
29551;DHT22;16488;52.396;10.696;2022-11-15T14:17:54;13.40;99.90
29551;DHT22;16488;52.396;10.696;2022-11-15T14:20:27;13.30;99.90
29551;DHT22;16488;52.396;10.696;2022-11-15T14:22:55;13.30;99.90
29551;DHT22;16488;52.396;10.696;2022-11-15T14:25:23;13.30;99.90
29551;DHT22;16488;52.396;10.696;2022-11-15T14:30:40;13.30;99.90
29551;DHT22;16488;52.396;10.696;2022-11-15T14:35:57;13.20;99.90
29551;DHT22;16488;52.396;10.696;2022-11-15T14:38:24;13.20;99.90
29551;DHT22;16488;52.396;10.696;2022-11-15T14:40:50;13.20;99.90
29551;DHT22;16488;52.396;10.696;2022-11-15T14:43:16;13.20;99.90
29551;DHT22;16488;52.396;10.696;2022-11-15T14:45:42;13.10;99.90
29551;DHT22;16488;52.396;10.696;2022-11-15T14:48:07;13.00;99.90
29551;DHT22;16488;52.396;10.696;2022-11-15T14:50:34;13.00;99.90
29551;DHT22;16488;52.396;10.696;2022-11-15T14:53:00;12.90;99.90
29551;DHT22;16488;52.396;10.696;2022-11-15T14:55:28;12.90;99.90
29551;DHT22;16488;52.396;10.696;2022-11-15T14:57:54;12.90;99.90
29551;DHT22;16488;52.396;10.696;2022-11-15T15:00:20;12.80;99.90
29551;DHT22;16488;52.396;10.696;2022-11-15T15:02:47;12.80;99.90
29551;DHT22;16488;52.396;10.696;2022-11-15T15:05:19;12.80;99.90
29551;DHT22;16488;52.396;10.696;2022-11-15T15:07:46;12.70;99.90
29551;DHT22;16488;52.396;10.696;2022-11-15T15:10:12;12.80;99.90
29551;DHT22;16488;52.396;10.696;2022-11-15T15:12:38;12.70;99.90
29551;DHT22;16488;52.396;10.696;2022-11-15T15:15:05;12.70;99.90
29551;DHT22;16488;52.396;10.696;2022-11-15T15:17:30;12.60;99.90
29551;DHT22;16488;52.396;10.696;2022-11-15T15:19:56;12.50;99.90
29551;DHT22;16488;52.396;10.696;2022-11-15T15:22:22;12.50;99.90
29551;DHT22;16488;52.396;10.696;2022-11-15T15:24:50;12.50;99.90
29551;DHT22;16488;52.396;10.696;2022-11-15T15:27:16;12.40;99.90
29551;DHT22;16488;52.396;10.696;2022-11-15T15:29:41;12.40;99.90
29551;DHT22;16488;52.396;10.696;2022-11-15T15:32:08;12.30;99.90
29551;DHT22;16488;52.396;10.696;2022-11-15T15:34:34;12.30;99.90
29551;DHT22;16488;52.396;10.696;2022-11-15T15:39:48;12.20;99.90
29551;DHT22;16488;52.396;10.696;2022-11-15T15:42:13;12.20;99.90
29551;DHT22;16488;52.396;10.696;2022-11-15T15:44:39;12.10;99.90
29551;DHT22;16488;52.396;10.696;2022-11-15T15:47:14;12.00;99.90
29551;DHT22;16488;52.396;10.696;2022-11-15T15:49:40;12.00;99.90
29551;DHT22;16488;52.396;10.696;2022-11-15T15:52:05;12.00;99.90
29551;DHT22;16488;52.396;10.696;2022-11-15T15:54:31;12.00;99.90
29551;DHT22;16488;52.396;10.696;2022-11-15T15:56:56;12.00;99.90
29551;DHT22;16488;52.396;10.696;2022-11-15T15:59:22;11.90;99.90
29551;DHT22;16488;52.396;10.696;2022-11-15T16:01:48;11.90;99.90
29551;DHT22;16488;52.396;10.696;2022-11-15T16:04:13;11.90;99.90
29551;DHT22;16488;52.396;10.696;2022-11-15T16:06:40;11.80;99.90
29551;DHT22;16488;52.396;10.696;2022-11-15T16:09:16;11.90;99.90
29551;DHT22;16488;52.396;10.696;2022-11-15T16:11:44;11.90;99.90
29551;DHT22;16488;52.396;10.696;2022-11-15T16:14:10;11.80;99.90
29551;DHT22;16488;52.396;10.696;2022-11-15T16:16:36;11.80;99.90
29551;DHT22;16488;52.396;10.696;2022-11-15T16:19:03;11.80;99.90
29551;DHT22;16488;52.396;10.696;2022-11-15T16:21:29;11.70;99.90
29551;DHT22;16488;52.396;10.696;2022-11-15T16:23:54;11.80;99.90
29551;DHT22;16488;52.396;10.696;2022-11-15T16:26:27;11.80;99.90
29551;DHT22;16488;52.396;10.696;2022-11-15T16:28:54;11.70;99.90
29551;DHT22;16488;52.396;10.696;2022-11-15T16:31:19;11.70;99.90
29551;DHT22;16488;52.396;10.696;2022-11-15T16:33:48;11.70;99.90
29551;DHT22;16488;52.396;10.696;2022-11-15T16:36:24;11.70;99.90
29551;DHT22;16488;52.396;10.696;2022-11-15T16:38:51;11.60;99.90
29551;DHT22;16488;52.396;10.696;2022-11-15T16:41:16;11.60;99.90
29551;DHT22;16488;52.396;10.696;2022-11-15T16:43:46;11.70;99.90
29551;DHT22;16488;52.396;10.696;2022-11-15T16:46:20;11.70;99.90
29551;DHT22;16488;52.396;10.696;2022-11-15T16:48:47;11.70;99.90
29551;DHT22;16488;52.396;10.696;2022-11-15T16:51:13;11.70;99.90
29551;DHT22;16488;52.396;10.696;2022-11-15T16:53:39;11.70;99.90
29551;DHT22;16488;52.396;10.696;2022-11-15T16:56:24;11.70;99.90
29551;DHT22;16488;52.396;10.696;2022-11-15T16:58:50;11.70;99.90
29551;DHT22;16488;52.396;10.696;2022-11-15T17:01:32;11.70;99.90
29551;DHT22;16488;52.396;10.696;2022-11-15T17:04:01;11.70;99.90
29551;DHT22;16488;52.396;10.696;2022-11-15T17:06:41;11.70;99.90
29551;DHT22;16488;52.396;10.696;2022-11-15T17:09:15;11.70;99.90
29551;DHT22;16488;52.396;10.696;2022-11-15T17:11:41;11.70;99.90
29551;DHT22;16488;52.396;10.696;2022-11-15T17:14:07;11.70;99.90
29551;DHT22;16488;52.396;10.696;2022-11-15T17:16:33;11.70;99.90
29551;DHT22;16488;52.396;10.696;2022-11-15T17:19:00;11.70;99.90
29551;DHT22;16488;52.396;10.696;2022-11-15T17:21:26;11.70;99.90
29551;DHT22;16488;52.396;10.696;2022-11-15T17:23:53;11.70;99.90
29551;DHT22;16488;52.396;10.696;2022-11-15T17:26:19;11.70;99.90
29551;DHT22;16488;52.396;10.696;2022-11-15T17:28:45;11.70;99.90
29551;DHT22;16488;52.396;10.696;2022-11-15T17:31:13;11.70;99.90
29551;DHT22;16488;52.396;10.696;2022-11-15T17:33:39;11.60;99.90
29551;DHT22;16488;52.396;10.696;2022-11-15T17:36:10;11.60;99.90